Time;durP1;ratioP1;P1;durP2;ratioP2;P2;SDS_P1;SDS_P2;PMS_P1;PMS_P2;Temp;Humidity;BMP_temperature;BMP_pressure;BME280_temperature;BME280_humidity;BME280_pressure;Samples;Min_cycle;Max_cycle;Signal;HPM_P1;HPM_P2
2022/12/29 00:02:16;;;;;;;;;;;9.10;99.90;;;;;;5071528;28;1246;-69
2022/12/29 00:04:42;;;;;;;;;;;9.10;99.90;;;;;;5085092;28;1215;-69
2022/12/29 00:07:08;;;;;;;;;;;9.20;99.90;;;;;;5082330;28;1314;-69
2022/12/29 00:09:34;;;;;;;;;;;9.10;99.90;;;;;;5068984;28;1287;-68
2022/12/29 00:12:00;;;;;;;;;;;9.10;99.90;;;;;;5082561;28;1262;-68
2022/12/29 00:17:11;;;;;;;;;;;9.20;99.90;;;;;;5085165;28;1208;-68
2022/12/29 00:36:02;;;;;;;;;;;9.20;99.90;;;;;;5069439;28;1236;-69
2022/12/29 00:44:06;;;;;;;;;;;9.20;99.90;;;;;;5065331;28;1220;-70
2022/12/29 00:46:32;;;;;;;;;;;9.20;99.90;;;;;;5068458;28;1235;-70
2022/12/29 00:51:42;;;;;;;;;;;9.40;99.90;;;;;;5080539;28;1208;-70
2022/12/29 00:54:08;;;;;;;;;;;9.30;99.90;;;;;;5080853;28;1388;-69
2022/12/29 00:56:34;;;;;;;;;;;9.30;99.90;;;;;;5081698;28;1246;-69
2022/12/29 00:59:01;;;;;;;;;;;9.30;99.90;;;;;;5071150;28;1918;-70
2022/12/29 01:01:27;;;;;;;;;;;9.30;99.90;;;;;;5070375;28;1302;-70
2022/12/29 01:03:53;;;;;;;;;;;9.30;99.90;;;;;;5070958;28;1223;-70
2022/12/29 01:06:18;;;;;;;;;;;9.30;99.90;;;;;;5068926;28;1239;-70
2022/12/29 01:08:44;;;;;;;;;;;9.30;99.90;;;;;;5081066;28;1075;-70
2022/12/29 01:11:10;;;;;;;;;;;9.30;99.90;;;;;;5081146;28;1215;-70
2022/12/29 01:13:38;;;;;;;;;;;9.40;99.90;;;;;;5081526;28;1124;-70
2022/12/29 01:16:04;;;;;;;;;;;9.40;99.90;;;;;;5051138;28;1088;-70
2022/12/29 01:18:30;;;;;;;;;;;9.40;99.90;;;;;;5069697;28;2031;-69
2022/12/29 01:20:58;;;;;;;;;;;9.40;99.90;;;;;;5081098;28;1946;-69
2022/12/29 01:23:24;;;;;;;;;;;9.40;99.90;;;;;;5069675;28;1242;-70
2022/12/29 01:25:50;;;;;;;;;;;9.40;99.90;;;;;;5069843;28;1430;-69
2022/12/29 01:28:15;;;;;;;;;;;9.40;99.90;;;;;;5081771;28;1298;-70
2022/12/29 01:30:41;;;;;;;;;;;9.40;99.90;;;;;;5080441;28;1222;-70
2022/12/29 01:33:07;;;;;;;;;;;9.40;99.90;;;;;;5080260;28;1246;-70
2022/12/29 01:35:32;;;;;;;;;;;9.40;99.90;;;;;;5081032;28;1238;-70
2022/12/29 01:37:58;;;;;;;;;;;9.40;99.90;;;;;;5070996;28;1338;-70
2022/12/29 01:40:24;;;;;;;;;;;9.50;99.90;;;;;;5068432;28;1910;-69
2022/12/29 01:42:49;;;;;;;;;;;9.50;99.90;;;;;;5070037;28;1251;-70
2022/12/29 01:45:16;;;;;;;;;;;9.50;99.90;;;;;;5080870;28;1102;-69
2022/12/29 01:47:52;;;;;;;;;;;9.50;99.90;;;;;;5082535;28;1277;-69
2022/12/29 01:50:22;;;;;;;;;;;9.50;99.90;;;;;;5078983;28;1235;-69
2022/12/29 01:52:57;;;;;;;;;;;9.50;99.90;;;;;;5070930;28;1226;-70
2022/12/29 01:55:23;;;;;;;;;;;9.50;99.90;;;;;;5078954;28;1282;-70
2022/12/29 01:57:51;;;;;;;;;;;9.60;99.90;;;;;;5082602;28;1230;-70
2022/12/29 02:00:16;;;;;;;;;;;9.60;99.90;;;;;;5049914;28;1979;-70
2022/12/29 02:02:49;;;;;;;;;;;9.60;99.90;;;;;;5077680;28;1213;-70
2022/12/29 02:05:21;;;;;;;;;;;9.60;99.90;;;;;;5071463;28;1108;-70
2022/12/29 02:07:48;;;;;;;;;;;9.60;99.90;;;;;;5068034;28;1290;-70
2022/12/29 02:10:14;;;;;;;;;;;9.50;99.90;;;;;;5080242;28;1222;-70
2022/12/29 02:12:40;;;;;;;;;;;9.50;99.90;;;;;;5080518;28;1191;-70
2022/12/29 02:15:06;;;;;;;;;;;9.50;99.90;;;;;;5067748;28;1347;-70
2022/12/29 02:17:32;;;;;;;;;;;9.50;99.90;;;;;;5068103;28;1124;-70
2022/12/29 02:20:10;;;;;;;;;;;9.60;99.90;;;;;;5070331;28;1977;-70
2022/12/29 02:22:38;;;;;;;;;;;9.50;99.90;;;;;;5067845;28;1297;-70
2022/12/29 02:25:24;;;;;;;;;;;9.60;99.90;;;;;;5080371;28;1238;-70
2022/12/29 02:27:53;;;;;;;;;;;9.60;99.90;;;;;;5050162;28;1363;-70
2022/12/29 02:30:28;;;;;;;;;;;9.60;99.90;;;;;;5080019;28;1117;-70
2022/12/29 02:32:53;;;;;;;;;;;9.60;99.90;;;;;;5067983;28;1265;-69
2022/12/29 02:35:23;;;;;;;;;;;9.60;99.90;;;;;;5081085;28;1290;-70
2022/12/29 02:37:50;;;;;;;;;;;9.60;99.90;;;;;;5068192;28;1270;-70
2022/12/29 02:40:24;;;;;;;;;;;9.60;99.90;;;;;;5080214;28;1981;-70
2022/12/29 02:42:55;;;;;;;;;;;9.70;99.90;;;;;;5068592;28;1302;-70
2022/12/29 02:45:40;;;;;;;;;;;9.70;99.90;;;;;;5079078;28;1195;-70
2022/12/29 02:48:14;;;;;;;;;;;9.70;99.90;;;;;;5066890;28;1095;-70
2022/12/29 02:50:46;;;;;;;;;;;9.70;99.90;;;;;;5059336;28;1270;-70
2022/12/29 02:53:15;;;;;;;;;;;9.70;99.90;;;;;;5067721;28;1267;-70
2022/12/29 02:55:48;;;;;;;;;;;9.70;99.90;;;;;;5071355;28;1443;-70
2022/12/29 02:58:19;;;;;;;;;;;9.60;99.90;;;;;;5072849;28;1215;-70
2022/12/29 03:00:57;;;;;;;;;;;9.50;99.90;;;;;;5073134;28;1995;-70
2022/12/29 03:03:33;;;;;;;;;;;9.50;99.90;;;;;;5069865;28;1274;-70
2022/12/29 03:06:06;;;;;;;;;;;9.50;99.90;;;;;;5071066;28;1144;-71
2022/12/29 03:08:40;;;;;;;;;;;9.40;99.90;;;;;;5071110;28;1275;-71
2022/12/29 03:12:07;;;;;;;;;;;9.40;99.90;;;;;;5082398;28;1267;-71
2022/12/29 03:16:48;;;;;;;;;;;9.40;99.90;;;;;;5070234;28;1215;-71
2022/12/29 03:19:19;;;;;;;;;;;9.50;99.90;;;;;;5073035;28;1913;-71
2022/12/29 03:24:40;;;;;;;;;;;9.50;99.90;;;;;;5054281;28;1175;-71
2022/12/29 03:27:08;;;;;;;;;;;9.40;99.90;;;;;;5085328;28;1283;-71
2022/12/29 03:29:41;;;;;;;;;;;9.40;99.90;;;;;;5070422;28;1346;-71
2022/12/29 03:32:08;;;;;;;;;;;9.40;99.90;;;;;;5069468;28;1228;-72
2022/12/29 03:34:35;;;;;;;;;;;9.40;99.90;;;;;;5071136;28;1333;-71
2022/12/29 03:37:02;;;;;;;;;;;9.50;99.90;;;;;;5070639;28;1242;-70
2022/12/29 03:39:28;;;;;;;;;;;9.40;99.90;;;;;;5071407;28;1959;-70
2022/12/29 03:41:59;;;;;;;;;;;9.50;99.90;;;;;;5070461;28;1220;-69
2022/12/29 03:44:33;;;;;;;;;;;9.50;99.90;;;;;;5069956;28;1143;-70
2022/12/29 03:47:00;;;;;;;;;;;9.60;99.90;;;;;;5069469;28;1507;-69
2022/12/29 03:49:25;;;;;;;;;;;9.60;99.90;;;;;;5073013;28;1231;-69
2022/12/29 03:51:51;;;;;;;;;;;9.70;99.90;;;;;;5071812;28;1247;-69
2022/12/29 03:54:17;;;;;;;;;;;9.60;99.90;;;;;;5083482;28;1251;-69
2022/12/29 03:56:46;;;;;;;;;;;9.50;99.90;;;;;;5056545;28;1251;-69
2022/12/29 03:59:16;;;;;;;;;;;9.50;99.90;;;;;;5056202;28;1914;-69
2022/12/29 04:01:44;;;;;;;;;;;9.50;99.90;;;;;;5072900;28;1107;-69
2022/12/29 04:04:09;;;;;;;;;;;9.50;99.90;;;;;;5091352;28;1209;-69
2022/12/29 04:06:35;;;;;;;;;;;9.40;99.90;;;;;;5091036;28;1163;-69
2022/12/29 04:09:04;;;;;;;;;;;9.50;99.90;;;;;;5072298;28;1116;-69
2022/12/29 04:11:34;;;;;;;;;;;9.50;99.90;;;;;;5051101;28;1188;-69
2022/12/29 04:14:01;;;;;;;;;;;9.50;99.90;;;;;;5071664;28;1211;-69
2022/12/29 04:16:29;;;;;;;;;;;9.50;99.90;;;;;;5053775;28;1216;-69
2022/12/29 04:18:55;;;;;;;;;;;9.60;99.90;;;;;;5072616;28;1307;-69
2022/12/29 04:21:22;;;;;;;;;;;9.50;99.90;;;;;;5069989;28;1902;-69
2022/12/29 04:23:47;;;;;;;;;;;9.50;99.90;;;;;;5073130;28;1135;-69
2022/12/29 04:26:14;;;;;;;;;;;9.60;99.90;;;;;;5072963;28;1293;-68
2022/12/29 04:28:59;;;;;;;;;;;9.60;99.90;;;;;;5055409;28;1090;-69
2022/12/29 04:31:39;;;;;;;;;;;9.20;99.90;;;;;;5072960;28;1217;-68
2022/12/29 04:34:05;;;;;;;;;;;9.70;99.90;;;;;;5070291;28;1306;-69
2022/12/29 04:36:32;;;;;;;;;;;9.60;99.90;;;;;;5068612;28;1255;-68
2022/12/29 04:38:58;;;;;;;;;;;9.60;99.90;;;;;;5072568;28;1243;-68
2022/12/29 04:41:24;;;;;;;;;;;9.60;99.90;;;;;;5082952;28;1902;-68
2022/12/29 04:43:50;;;;;;;;;;;9.60;99.90;;;;;;5068215;28;1223;-68
2022/12/29 04:46:16;;;;;;;;;;;9.60;99.90;;;;;;5084391;28;1331;-68
2022/12/29 04:48:53;;;;;;;;;;;9.70;99.90;;;;;;5052312;28;1207;-68
2022/12/29 04:51:27;;;;;;;;;;;9.70;99.90;;;;;;5068308;28;1168;-68
2022/12/29 04:53:53;;;;;;;;;;;9.60;99.90;;;;;;5052323;28;1313;-68
2022/12/29 04:56:18;;;;;;;;;;;9.80;99.90;;;;;;5070662;28;1223;-69
2022/12/29 04:58:44;;;;;;;;;;;9.80;99.90;;;;;;5069959;28;1230;-68
2022/12/29 05:01:10;;;;;;;;;;;9.60;99.90;;;;;;5052503;28;1989;-69
2022/12/29 05:03:36;;;;;;;;;;;9.70;99.90;;;;;;5082594;28;1134;-68
2022/12/29 05:06:02;;;;;;;;;;;9.70;99.90;;;;;;5069767;28;1602;-68
2022/12/29 05:08:28;;;;;;;;;;;9.70;99.90;;;;;;5069616;28;1290;-69
2022/12/29 05:10:57;;;;;;;;;;;9.80;99.90;;;;;;5070177;28;1228;-68
2022/12/29 05:13:23;;;;;;;;;;;9.70;99.90;;;;;;5068877;28;1243;-69
2022/12/29 05:15:51;;;;;;;;;;;9.60;99.90;;;;;;5068686;28;1104;-69
2022/12/29 05:18:17;;;;;;;;;;;9.60;99.90;;;;;;5080088;28;1213;-68
2022/12/29 05:20:43;;;;;;;;;;;9.60;99.90;;;;;;5069615;28;1914;-68
2022/12/29 05:23:08;;;;;;;;;;;9.50;99.90;;;;;;5080628;28;1227;-69
2022/12/29 05:25:35;;;;;;;;;;;9.50;99.90;;;;;;5067559;28;1220;-69
2022/12/29 05:28:12;;;;;;;;;;;9.40;99.90;;;;;;5070081;28;1630;-68
2022/12/29 05:30:42;;;;;;;;;;;9.40;99.90;;;;;;5080955;28;1254;-69
2022/12/29 05:33:11;;;;;;;;;;;9.50;99.90;;;;;;5070525;28;1310;-68
2022/12/29 05:35:38;;;;;;;;;;;9.40;99.90;;;;;;5070275;28;1274;-69
2022/12/29 05:38:04;;;;;;;;;;;9.40;99.90;;;;;;5054425;28;1278;-68
2022/12/29 05:40:30;;;;;;;;;;;9.30;99.90;;;;;;5069635;28;2407;-68
2022/12/29 05:42:59;;;;;;;;;;;9.30;99.90;;;;;;5067529;28;1223;-68
2022/12/29 05:45:38;;;;;;;;;;;9.30;99.90;;;;;;5050489;28;1117;-69
2022/12/29 05:48:25;;;;;;;;;;;9.40;99.90;;;;;;5069427;28;1061;-69
2022/12/29 05:51:12;;;;;;;;;;;9.20;99.90;;;;;;5069748;28;1264;-69
2022/12/29 05:53:47;;;;;;;;;;;9.10;99.90;;;;;;5083106;28;1197;-69
2022/12/29 05:56:12;;;;;;;;;;;9.20;99.90;;;;;;5088763;28;1032;-69
2022/12/29 05:58:39;;;;;;;;;;;9.20;99.90;;;;;;5069366;28;1235;-69
2022/12/29 06:01:05;;;;;;;;;;;9.20;99.90;;;;;;5070330;28;1975;-69
2022/12/29 06:03:31;;;;;;;;;;;9.30;99.90;;;;;;5068443;28;1310;-69
2022/12/29 06:05:57;;;;;;;;;;;9.30;99.90;;;;;;5081909;28;1155;-69
2022/12/29 06:08:22;;;;;;;;;;;9.30;99.90;;;;;;5068390;28;1187;-69
2022/12/29 06:10:49;;;;;;;;;;;9.30;99.90;;;;;;5070844;28;1305;-70
2022/12/29 06:13:15;;;;;;;;;;;9.30;99.90;;;;;;5052819;28;1085;-70
2022/12/29 06:15:43;;;;;;;;;;;9.20;99.90;;;;;;5070291;28;1060;-70
2022/12/29 06:18:09;;;;;;;;;;;9.10;99.90;;;;;;5070374;28;1271;-70
2022/12/29 06:20:35;;;;;;;;;;;9.20;99.90;;;;;;5066697;28;1902;-70
2022/12/29 06:23:04;;;;;;;;;;;9.20;99.90;;;;;;5052381;28;1223;-70
2022/12/29 06:25:32;;;;;;;;;;;9.30;99.90;;;;;;5054532;28;1104;-70
2022/12/29 06:27:58;;;;;;;;;;;9.30;99.90;;;;;;5066005;28;1666;-70
2022/12/29 06:30:23;;;;;;;;;;;9.40;99.90;;;;;;5073639;28;1342;-70
2022/12/29 06:32:49;;;;;;;;;;;9.40;99.90;;;;;;5083667;28;1191;-70
2022/12/29 06:35:15;;;;;;;;;;;9.50;99.90;;;;;;5070414;28;1301;-69
2022/12/29 06:37:45;;;;;;;;;;;9.50;99.90;;;;;;5055811;28;1223;-69
2022/12/29 06:40:11;;;;;;;;;;;9.50;99.90;;;;;;5072081;28;1910;-69
2022/12/29 06:43:08;;;;;;;;;;;9.40;99.90;;;;;;5069793;28;1189;-69
2022/12/29 06:45:43;;;;;;;;;;;9.40;99.90;;;;;;5083660;28;1207;-69
2022/12/29 06:48:08;;;;;;;;;;;9.50;99.90;;;;;;5086693;28;1099;-69
2022/12/29 06:50:34;;;;;;;;;;;9.40;99.90;;;;;;5084261;28;1128;-69
2022/12/29 06:53:00;;;;;;;;;;;9.50;99.90;;;;;;5092955;28;1035;-68
2022/12/29 06:55:26;;;;;;;;;;;9.50;99.90;;;;;;5092546;28;1247;-68
2022/12/29 06:57:53;;;;;;;;;;;9.30;99.90;;;;;;5073498;28;1147;-68
2022/12/29 07:00:19;;;;;;;;;;;9.30;99.90;;;;;;5092311;28;1985;-70
2022/12/29 07:02:45;;;;;;;;;;;9.40;99.90;;;;;;5091986;28;1174;-70
2022/12/29 07:05:11;;;;;;;;;;;9.30;99.90;;;;;;5092175;28;1116;-70
2022/12/29 07:07:36;;;;;;;;;;;9.40;99.90;;;;;;5080846;28;1204;-70
2022/12/29 07:10:02;;;;;;;;;;;9.30;99.90;;;;;;5091672;28;1178;-71
2022/12/29 07:12:28;;;;;;;;;;;9.30;99.90;;;;;;5091681;28;1174;-71
2022/12/29 07:14:54;;;;;;;;;;;9.30;99.90;;;;;;5092406;28;1084;-72
2022/12/29 07:17:19;;;;;;;;;;;9.20;99.90;;;;;;5091598;28;1182;-71
2022/12/29 07:19:45;;;;;;;;;;;9.20;99.90;;;;;;5091846;28;1906;-72
2022/12/29 07:22:10;;;;;;;;;;;9.10;99.90;;;;;;5092338;28;1155;-72
2022/12/29 07:24:36;;;;;;;;;;;9.10;99.90;;;;;;5091443;28;1131;-72
2022/12/29 07:27:02;;;;;;;;;;;9.00;99.90;;;;;;5091529;28;1406;-72
2022/12/29 07:29:27;;;;;;;;;;;9.00;99.90;;;;;;5091976;28;1143;-72
2022/12/29 07:31:53;;;;;;;;;;;9.10;99.90;;;;;;5091337;28;1079;-72
2022/12/29 07:34:19;;;;;;;;;;;9.10;99.90;;;;;;5070819;28;2003;-72
2022/12/29 07:36:44;;;;;;;;;;;9.10;99.90;;;;;;5085299;28;1234;-72
2022/12/29 07:39:11;;;;;;;;;;;9.20;99.90;;;;;;5082059;28;1239;-72
2022/12/29 07:41:37;;;;;;;;;;;9.20;99.90;;;;;;5091123;28;1977;-72
2022/12/29 07:44:02;;;;;;;;;;;9.20;99.90;;;;;;5091738;28;1107;-72
2022/12/29 07:46:54;;;;;;;;;;;9.30;99.90;;;;;;5061239;28;1071;-72
2022/12/29 07:49:20;;;;;;;;;;;9.40;99.90;;;;;;5091068;28;1243;-72
2022/12/29 07:51:46;;;;;;;;;;;9.40;99.90;;;;;;5091546;28;1198;-72
2022/12/29 07:54:12;;;;;;;;;;;9.30;99.90;;;;;;5090687;28;1364;-72
2022/12/29 07:56:38;;;;;;;;;;;9.40;99.90;;;;;;5090999;28;1092;-72
2022/12/29 07:59:03;;;;;;;;;;;9.40;99.90;;;;;;5090932;28;965;-73
2022/12/29 08:01:29;;;;;;;;;;;9.30;99.90;;;;;;5091437;28;1910;-72
2022/12/29 08:03:55;;;;;;;;;;;9.40;99.90;;;;;;5091348;28;1170;-72
2022/12/29 08:06:21;;;;;;;;;;;9.40;99.90;;;;;;5062583;28;1284;-72
2022/12/29 08:08:47;;;;;;;;;;;9.30;99.90;;;;;;5091429;28;1131;-72
2022/12/29 08:11:12;;;;;;;;;;;9.30;99.90;;;;;;5090966;28;964;-72
2022/12/29 08:13:38;;;;;;;;;;;9.40;99.90;;;;;;5091096;28;1107;-73
2022/12/29 08:16:04;;;;;;;;;;;9.40;99.90;;;;;;5089657;28;1210;-73
2022/12/29 08:18:30;;;;;;;;;;;9.40;99.90;;;;;;5080290;28;1235;-72
2022/12/29 08:21:01;;;;;;;;;;;9.40;99.90;;;;;;5078515;28;1934;-72
2022/12/29 08:23:26;;;;;;;;;;;9.40;99.90;;;;;;5082418;28;1135;-73
2022/12/29 08:25:57;;;;;;;;;;;9.40;99.90;;;;;;5071999;28;1252;-72
2022/12/29 08:28:22;;;;;;;;;;;9.50;99.90;;;;;;5089859;28;1092;-73
2022/12/29 08:30:48;;;;;;;;;;;9.40;99.90;;;;;;5081365;28;1163;-73
2022/12/29 08:33:14;;;;;;;;;;;9.40;99.90;;;;;;5082916;28;1227;-73
2022/12/29 08:35:39;;;;;;;;;;;9.50;99.90;;;;;;5087141;28;1199;-73
2022/12/29 08:38:05;;;;;;;;;;;9.50;99.90;;;;;;5090566;28;1160;-73
2022/12/29 08:40:31;;;;;;;;;;;9.40;99.90;;;;;;5090633;28;1973;-72
2022/12/29 08:42:56;;;;;;;;;;;9.30;99.90;;;;;;5089919;28;1120;-72
2022/12/29 08:45:22;;;;;;;;;;;9.30;99.90;;;;;;5090285;28;1099;-73
2022/12/29 08:47:48;;;;;;;;;;;9.30;99.90;;;;;;5071398;28;1108;-73
2022/12/29 08:50:13;;;;;;;;;;;9.40;99.90;;;;;;5076269;28;1243;-72
2022/12/29 08:52:39;;;;;;;;;;;9.40;99.90;;;;;;5084974;28;1226;-73
2022/12/29 08:55:05;;;;;;;;;;;9.20;99.90;;;;;;5083575;28;1261;-73
2022/12/29 08:57:30;;;;;;;;;;;9.00;99.90;;;;;;5071594;28;1195;-73
2022/12/29 09:00:04;;;;;;;;;;;8.10;99.90;;;;;;5072287;28;1930;-73
2022/12/29 09:02:29;;;;;;;;;;;7.80;99.90;;;;;;5071389;28;1088;-73
2022/12/29 09:04:57;;;;;;;;;;;7.90;99.90;;;;;;5089688;28;1510;-73
2022/12/29 09:07:23;;;;;;;;;;;7.80;99.90;;;;;;5051822;28;3032;-73
2022/12/29 09:09:49;;;;;;;;;;;7.80;99.90;;;;;;5082946;28;3124;-73
2022/12/29 09:12:15;;;;;;;;;;;7.90;99.90;;;;;;5090172;28;1178;-72
2022/12/29 09:14:42;;;;;;;;;;;7.90;99.90;;;;;;5071835;28;3229;-71
2022/12/29 09:19:53;;;;;;;;;;;8.10;99.90;;;;;;5082962;28;1930;-71
2022/12/29 09:22:18;;;;;;;;;;;8.10;99.90;;;;;;5089454;28;1147;-71
2022/12/29 09:24:44;;;;;;;;;;;8.20;99.90;;;;;;5070831;28;1183;-71
2022/12/29 09:27:09;;;;;;;;;;;8.20;99.90;;;;;;5084167;28;2657;-72
2022/12/29 09:29:35;;;;;;;;;;;8.20;99.90;;;;;;5089721;28;1108;-72
2022/12/29 09:32:01;;;;;;;;;;;8.20;99.90;;;;;;5089010;28;1104;-72
2022/12/29 09:34:26;;;;;;;;;;;8.30;99.90;;;;;;5076956;28;1618;-72
2022/12/29 09:36:52;;;;;;;;;;;8.30;99.90;;;;;;5082125;28;1185;-72
2022/12/29 09:39:18;;;;;;;;;;;8.30;99.90;;;;;;5079125;28;1397;-71
2022/12/29 09:41:51;;;;;;;;;;;8.40;99.90;;;;;;5057879;28;1910;-72
2022/12/29 09:44:26;;;;;;;;;;;8.20;99.90;;;;;;5080183;28;1199;-72
2022/12/29 09:46:52;;;;;;;;;;;8.30;99.90;;;;;;5077359;28;1387;-72
2022/12/29 09:49:18;;;;;;;;;;;8.20;99.90;;;;;;5077446;28;1396;-72
2022/12/29 09:51:46;;;;;;;;;;;8.20;99.90;;;;;;5077275;28;3187;-72
2022/12/29 09:54:22;;;;;;;;;;;8.10;99.90;;;;;;5064813;28;1317;-72
2022/12/29 09:56:48;;;;;;;;;;;8.20;99.90;;;;;;5068906;28;3272;-71
2022/12/29 09:59:17;;;;;;;;;;;8.20;99.90;;;;;;5068675;28;1176;-71
2022/12/29 10:01:46;;;;;;;;;;;8.40;99.90;;;;;;5077964;28;1910;-72
2022/12/29 10:04:12;;;;;;;;;;;8.10;99.90;;;;;;5083990;28;1458;-72
2022/12/29 10:06:40;;;;;;;;;;;8.00;99.90;;;;;;5078703;28;1180;-72
2022/12/29 10:09:25;;;;;;;;;;;8.10;99.90;;;;;;5079840;28;3370;-72
2022/12/29 10:12:06;;;;;;;;;;;8.20;99.90;;;;;;5080646;28;3078;-72
2022/12/29 10:14:43;;;;;;;;;;;8.30;99.90;;;;;;5076467;28;3134;-72
2022/12/29 10:17:21;;;;;;;;;;;8.20;99.90;;;;;;5083901;28;1398;-72
2022/12/29 10:19:54;;;;;;;;;;;8.00;99.90;;;;;;5079238;28;1902;-72
2022/12/29 10:22:30;;;;;;;;;;;8.10;99.90;;;;;;5087059;28;1486;-72
2022/12/29 10:24:56;;;;;;;;;;;8.10;99.90;;;;;;5075595;28;1398;-72
2022/12/29 10:27:23;;;;;;;;;;;8.10;99.90;;;;;;5079692;28;2648;-72
2022/12/29 10:29:52;;;;;;;;;;;8.20;99.90;;;;;;5078679;28;1489;-73
2022/12/29 10:32:23;;;;;;;;;;;8.00;99.90;;;;;;5078041;28;1325;-73
2022/12/29 10:34:52;;;;;;;;;;;7.90;99.90;;;;;;5077741;28;1179;-73
2022/12/29 10:37:25;;;;;;;;;;;7.90;99.90;;;;;;5076056;28;1126;-72
2022/12/29 10:39:52;;;;;;;;;;;7.80;99.90;;;;;;5074712;28;1917;-73
2022/12/29 10:42:24;;;;;;;;;;;7.80;99.90;;;;;;5081308;28;1151;-72
2022/12/29 10:44:50;;;;;;;;;;;7.90;99.90;;;;;;5088478;28;1393;-71
2022/12/29 10:47:20;;;;;;;;;;;7.80;99.90;;;;;;5058164;28;1197;-71
2022/12/29 10:49:47;;;;;;;;;;;7.90;99.90;;;;;;5050358;28;1125;-71
2022/12/29 10:52:14;;;;;;;;;;;7.80;99.90;;;;;;5077441;28;1185;-71
2022/12/29 10:54:49;;;;;;;;;;;7.80;99.90;;;;;;5079822;28;1257;-71
2022/12/29 10:57:26;;;;;;;;;;;7.80;99.90;;;;;;5072516;28;1365;-71
2022/12/29 10:59:51;;;;;;;;;;;7.80;99.90;;;;;;5081479;28;1922;-72
2022/12/29 11:02:26;;;;;;;;;;;7.80;99.90;;;;;;5084906;28;1196;-72
2022/12/29 11:04:51;;;;;;;;;;;7.80;99.90;;;;;;5058030;28;1461;-71
2022/12/29 11:07:18;;;;;;;;;;;7.80;99.90;;;;;;5086458;28;1314;-71
2022/12/29 11:09:44;;;;;;;;;;;7.80;99.90;;;;;;5083858;28;1223;-71
2022/12/29 11:12:24;;;;;;;;;;;7.80;99.90;;;;;;5076125;28;1286;-71
2022/12/29 11:15:14;;;;;;;;;;;7.80;99.90;;;;;;5085587;28;1100;-71
2022/12/29 11:17:45;;;;;;;;;;;7.80;99.90;;;;;;5077325;28;2089;-71
2022/12/29 11:20:26;;;;;;;;;;;7.80;99.90;;;;;;5091023;28;1975;-71
2022/12/29 11:22:52;;;;;;;;;;;7.80;99.90;;;;;;5056881;28;1125;-71
2022/12/29 11:25:17;;;;;;;;;;;7.90;99.90;;;;;;5089850;28;1096;-71
2022/12/29 11:27:54;;;;;;;;;;;7.90;99.90;;;;;;5063956;28;1936;-71
2022/12/29 11:30:24;;;;;;;;;;;8.00;99.90;;;;;;5090799;28;1057;-71
2022/12/29 11:32:52;;;;;;;;;;;8.20;99.90;;;;;;5091551;28;1100;-71
2022/12/29 11:35:29;;;;;;;;;;;8.40;99.90;;;;;;5086823;28;1127;-71
2022/12/29 11:37:57;;;;;;;;;;;8.30;99.90;;;;;;5090698;28;1127;-72
2022/12/29 11:40:22;;;;;;;;;;;8.40;99.90;;;;;;5091670;28;1951;-72
2022/12/29 11:42:51;;;;;;;;;;;8.90;99.90;;;;;;5091589;28;1008;-71
2022/12/29 11:45:18;;;;;;;;;;;8.80;99.90;;;;;;5078087;28;1665;-72
2022/12/29 11:47:45;;;;;;;;;;;8.80;99.90;;;;;;5086137;28;1198;-71
2022/12/29 11:50:17;;;;;;;;;;;8.80;99.90;;;;;;5091438;28;1221;-71
2022/12/29 11:52:42;;;;;;;;;;;8.70;99.90;;;;;;5084063;28;1155;-71
2022/12/29 11:55:17;;;;;;;;;;;8.70;99.90;;;;;;5090798;28;1226;-71
2022/12/29 11:57:44;;;;;;;;;;;8.70;99.90;;;;;;5090775;28;1095;-71
2022/12/29 12:00:18;;;;;;;;;;;8.70;99.90;;;;;;5067965;28;1909;-71
2022/12/29 12:02:54;;;;;;;;;;;8.80;99.90;;;;;;5077267;28;1235;-70
2022/12/29 12:05:27;;;;;;;;;;;8.60;99.90;;;;;;5090220;28;1171;-71
2022/12/29 12:07:56;;;;;;;;;;;8.60;99.90;;;;;;5059209;28;1141;-70
2022/12/29 12:10:27;;;;;;;;;;;8.60;99.90;;;;;;5083517;28;1115;-70
2022/12/29 12:12:58;;;;;;;;;;;8.80;99.90;;;;;;5069494;28;3211;-70
2022/12/29 12:15:28;;;;;;;;;;;8.70;99.90;;;;;;5058822;28;3204;-71
2022/12/29 12:18:01;;;;;;;;;;;9.00;99.90;;;;;;5064501;28;3206;-72
2022/12/29 12:20:32;;;;;;;;;;;9.40;99.90;;;;;;5075090;28;2723;-72
2022/12/29 12:23:20;;;;;;;;;;;9.80;99.90;;;;;;5079622;28;1181;-72
2022/12/29 12:25:54;;;;;;;;;;;9.70;99.90;;;;;;5074567;28;2017;-72
2022/12/29 12:28:25;;;;;;;;;;;9.40;99.90;;;;;;5072121;28;1208;-72
2022/12/29 12:30:54;;;;;;;;;;;9.20;99.90;;;;;;5068924;28;1185;-72
2022/12/29 12:33:27;;;;;;;;;;;9.60;99.90;;;;;;5072629;28;2196;-72
2022/12/29 12:36:13;;;;;;;;;;;10.00;99.90;;;;;;5071061;28;2662;-72
2022/12/29 12:39:00;;;;;;;;;;;10.00;99.90;;;;;;5069620;28;1128;-72
2022/12/29 12:41:36;;;;;;;;;;;9.70;99.90;;;;;;5089175;28;1910;-72
2022/12/29 12:44:02;;;;;;;;;;;9.20;99.90;;;;;;5071576;28;1171;-69
2022/12/29 12:46:31;;;;;;;;;;;9.10;99.90;;;;;;5080638;28;1159;-70
2022/12/29 12:49:08;;;;;;;;;;;9.20;99.90;;;;;;5080573;28;1329;-69
2022/12/29 12:51:48;;;;;;;;;;;9.20;99.90;;;;;;5081998;28;2031;-69
2022/12/29 12:54:32;;;;;;;;;;;9.30;99.90;;;;;;5085633;28;1405;-70
2022/12/29 12:57:05;;;;;;;;;;;9.00;99.90;;;;;;5089680;28;1139;-70
2022/12/29 12:59:38;;;;;;;;;;;8.90;99.90;;;;;;5088370;28;1967;-70
2022/12/29 13:02:16;;;;;;;;;;;8.90;99.90;;;;;;5071274;28;935;-70
2022/12/29 13:04:45;;;;;;;;;;;8.90;99.90;;;;;;5080118;28;1439;-70
2022/12/29 13:07:19;;;;;;;;;;;9.00;99.90;;;;;;5089370;28;1104;-69
2022/12/29 13:10:00;;;;;;;;;;;9.10;99.90;;;;;;5089301;28;1119;-70
2022/12/29 13:12:35;;;;;;;;;;;9.10;99.90;;;;;;5085944;28;1131;-69
2022/12/29 13:15:19;;;;;;;;;;;9.30;99.90;;;;;;5089233;28;1194;-70
2022/12/29 13:17:47;;;;;;;;;;;9.30;99.90;;;;;;5077555;28;1077;-69
2022/12/29 13:20:19;;;;;;;;;;;9.20;99.90;;;;;;5089213;28;1910;-69
2022/12/29 13:22:46;;;;;;;;;;;9.10;99.90;;;;;;5078088;28;1267;-69
2022/12/29 13:25:31;;;;;;;;;;;9.20;99.90;;;;;;5089304;28;1827;-70
2022/12/29 13:28:00;;;;;;;;;;;9.50;99.90;;;;;;5089228;28;1569;-70
2022/12/29 13:30:29;;;;;;;;;;;9.70;99.90;;;;;;5083651;28;1184;-70
2022/12/29 13:33:00;;;;;;;;;;;10.20;99.90;;;;;;5089070;28;1080;-70
2022/12/29 13:35:39;;;;;;;;;;;10.30;99.90;;;;;;5089285;28;1174;-70
2022/12/29 13:38:17;;;;;;;;;;;9.90;99.90;;;;;;5087010;28;1172;-71
2022/12/29 13:40:46;;;;;;;;;;;9.90;99.90;;;;;;5079999;28;1938;-70
2022/12/29 13:43:12;;;;;;;;;;;9.80;99.90;;;;;;5087139;28;989;-70
2022/12/29 13:45:39;;;;;;;;;;;9.70;99.90;;;;;;5079560;28;1125;-70
2022/12/29 13:48:04;;;;;;;;;;;9.50;99.90;;;;;;5087167;28;1326;-69
2022/12/29 13:50:34;;;;;;;;;;;9.40;99.90;;;;;;5070746;28;1119;-70
2022/12/29 13:53:00;;;;;;;;;;;9.10;99.90;;;;;;5087970;28;1140;-70
2022/12/29 13:55:36;;;;;;;;;;;9.10;99.90;;;;;;5067231;28;1211;-70
2022/12/29 13:58:04;;;;;;;;;;;9.10;99.90;;;;;;5067088;28;1288;-70
2022/12/29 14:00:38;;;;;;;;;;;9.10;99.90;;;;;;5068090;28;1915;-70
2022/12/29 14:03:13;;;;;;;;;;;9.00;99.90;;;;;;5068601;28;1241;-70
2022/12/29 14:05:39;;;;;;;;;;;9.20;99.90;;;;;;5061203;28;1155;-70
2022/12/29 14:08:05;;;;;;;;;;;9.50;99.90;;;;;;5068639;28;1087;-70
2022/12/29 14:10:35;;;;;;;;;;;9.40;99.90;;;;;;5068867;28;1103;-70
2022/12/29 14:13:01;;;;;;;;;;;9.40;99.90;;;;;;5067745;28;1111;-69
2022/12/29 14:15:27;;;;;;;;;;;9.40;99.90;;;;;;5054218;28;1104;-70
2022/12/29 14:18:01;;;;;;;;;;;9.40;99.90;;;;;;5068666;28;969;-70
2022/12/29 14:20:27;;;;;;;;;;;9.30;99.90;;;;;;5066042;28;2049;-69
2022/12/29 14:22:59;;;;;;;;;;;9.20;99.90;;;;;;5062951;28;1203;-70
2022/12/29 14:25:43;;;;;;;;;;;9.00;99.90;;;;;;5067142;28;1826;-70
2022/12/29 14:28:16;;;;;;;;;;;8.80;99.90;;;;;;5067382;28;1556;-70
2022/12/29 14:30:49;;;;;;;;;;;8.70;99.90;;;;;;5068577;28;1039;-70
2022/12/29 14:33:15;;;;;;;;;;;8.60;99.90;;;;;;5066526;28;1165;-70
2022/12/29 14:35:42;;;;;;;;;;;8.60;99.90;;;;;;5066160;28;1089;-70
2022/12/29 14:38:16;;;;;;;;;;;8.60;99.90;;;;;;5059493;28;1093;-70
2022/12/29 14:40:42;;;;;;;;;;;8.50;99.90;;;;;;5058378;28;1914;-70
2022/12/29 14:43:18;;;;;;;;;;;8.60;99.90;;;;;;5060190;28;1191;-69
2022/12/29 14:45:51;;;;;;;;;;;8.50;99.90;;;;;;5058431;28;1230;-69
2022/12/29 14:48:23;;;;;;;;;;;8.60;99.90;;;;;;5060275;28;1303;-69
2022/12/29 14:50:49;;;;;;;;;;;8.60;99.90;;;;;;5062825;28;1245;-69
2022/12/29 14:53:46;;;;;;;;;;;8.50;99.90;;;;;;5062086;28;1287;-70
2022/12/29 14:56:13;;;;;;;;;;;8.50;99.90;;;;;;5060996;28;1123;-69
2022/12/29 14:58:46;;;;;;;;;;;8.40;99.90;;;;;;5061277;28;1195;-70
2022/12/29 15:01:20;;;;;;;;;;;8.40;99.90;;;;;;5060417;28;1980;-70
2022/12/29 15:03:49;;;;;;;;;;;8.40;99.90;;;;;;5065900;28;1199;-69
2022/12/29 15:06:18;;;;;;;;;;;8.30;99.90;;;;;;5061023;28;1254;-69
2022/12/29 15:08:49;;;;;;;;;;;8.30;99.90;;;;;;5061977;28;1208;-69
2022/12/29 15:11:17;;;;;;;;;;;8.20;99.90;;;;;;5062649;28;1238;-72
2022/12/29 15:13:43;;;;;;;;;;;8.30;99.90;;;;;;5062338;28;1207;-72
2022/12/29 15:16:23;;;;;;;;;;;8.20;99.90;;;;;;5063777;28;1242;-72
2022/12/29 15:18:49;;;;;;;;;;;8.20;99.90;;;;;;5066469;28;1259;-72
2022/12/29 15:21:15;;;;;;;;;;;8.20;99.90;;;;;;5064184;28;1910;-72
2022/12/29 15:23:43;;;;;;;;;;;8.10;99.90;;;;;;5061829;28;1313;-72
2022/12/29 15:26:10;;;;;;;;;;;8.10;99.90;;;;;;5064666;28;1763;-72
2022/12/29 15:28:40;;;;;;;;;;;8.00;99.90;;;;;;5063931;28;1159;-72
2022/12/29 15:31:11;;;;;;;;;;;8.00;99.90;;;;;;5063847;28;1290;-72
2022/12/29 15:33:39;;;;;;;;;;;8.00;99.90;;;;;;5063592;28;1112;-72